createdAt,value
2023-03-03T00:00:11.175Z,0
2023-03-03T00:01:11.161Z,0
2023-03-03T00:02:11.427Z,0
2023-03-03T00:03:11.487Z,0
2023-03-03T00:04:14.010Z,0
2023-03-03T00:05:11.169Z,0
2023-03-03T00:06:11.202Z,0
2023-03-03T00:07:11.241Z,0
2023-03-03T00:08:11.296Z,0
2023-03-03T00:09:11.189Z,0
2023-03-03T00:10:11.180Z,0
2023-03-03T00:11:11.171Z,0
2023-03-03T00:12:11.202Z,0
2023-03-03T00:13:11.188Z,0
2023-03-03T00:14:11.161Z,0
2023-03-03T00:15:13.987Z,0
2023-03-03T00:16:11.455Z,0
2023-03-03T00:17:11.293Z,0
2023-03-03T00:18:12.233Z,0
2023-03-03T00:19:11.231Z,0
2023-03-03T00:20:11.179Z,0
2023-03-03T00:21:11.235Z,0
2023-03-03T00:22:11.213Z,0
2023-03-03T00:23:11.197Z,0
2023-03-03T00:24:11.213Z,0
2023-03-03T00:25:11.188Z,0
2023-03-03T00:26:12.232Z,0
2023-03-03T00:27:11.243Z,0
2023-03-03T00:28:11.207Z,0
2023-03-03T00:29:11.221Z,0
2023-03-03T00:30:11.269Z,0
2023-03-03T00:31:14.203Z,0
2023-03-03T00:32:11.425Z,0
2023-03-03T00:33:11.252Z,0
2023-03-03T00:34:11.331Z,0
2023-03-03T00:35:11.252Z,0
2023-03-03T00:36:11.232Z,0
2023-03-03T00:37:14.280Z,0
2023-03-03T00:38:11.200Z,0
2023-03-03T00:39:11.211Z,0
2023-03-03T00:40:11.269Z,0
2023-03-03T00:41:11.216Z,0
2023-03-03T00:42:12.153Z,0
2023-03-03T00:43:11.228Z,0
2023-03-03T00:44:10.898Z,0
2023-03-03T00:45:11.250Z,0
2023-03-03T00:46:11.324Z,0
2023-03-03T00:47:11.283Z,0
2023-03-03T00:48:11.284Z,0
2023-03-03T00:49:11.236Z,0
2023-03-03T00:50:11.321Z,0
2023-03-03T00:51:11.274Z,0
2023-03-03T00:52:11.321Z,0
2023-03-03T00:53:14.396Z,0
2023-03-03T00:54:11.261Z,0
2023-03-03T00:55:11.285Z,0
2023-03-03T00:56:11.223Z,0
2023-03-03T00:57:11.496Z,0
2023-03-03T00:58:11.282Z,0
2023-03-03T00:59:11.251Z,0
2023-03-03T01:00:11.285Z,0
2023-03-03T01:01:11.258Z,0
2023-03-03T01:02:11.313Z,0
2023-03-03T01:03:11.280Z,0
2023-03-03T01:04:11.284Z,0
2023-03-03T01:05:11.283Z,0
2023-03-03T01:06:11.390Z,0
2023-03-03T01:07:11.328Z,0
2023-03-03T01:08:11.305Z,0
2023-03-03T01:09:14.286Z,0
2023-03-03T01:10:11.263Z,0
2023-03-03T01:11:11.275Z,0
2023-03-03T01:12:11.321Z,0
2023-03-03T01:13:11.326Z,0
2023-03-03T01:14:25.893Z,0
2023-03-03T01:15:11.301Z,0
2023-03-03T01:16:11.507Z,0
2023-03-03T01:17:11.338Z,0
2023-03-03T01:18:11.271Z,0
2023-03-03T01:19:11.284Z,0
2023-03-03T01:20:14.397Z,0
2023-03-03T01:21:11.288Z,0
2023-03-03T01:22:11.356Z,0
2023-03-03T01:23:11.308Z,0
2023-03-03T01:24:11.284Z,0
2023-03-03T01:25:14.280Z,0
2023-03-03T01:26:11.314Z,0
2023-03-03T01:27:11.377Z,0
2023-03-03T01:28:11.301Z,0
2023-03-03T01:29:11.317Z,0
2023-03-03T01:30:11.389Z,0
2023-03-03T01:31:15.712Z,0
2023-03-03T01:32:11.580Z,0
2023-03-03T01:33:11.325Z,0
2023-03-03T01:34:11.319Z,0
2023-03-03T01:35:11.323Z,0
2023-03-03T01:36:14.484Z,0
2023-03-03T01:37:11.336Z,0
2023-03-03T01:38:11.397Z,0
2023-03-03T01:39:11.365Z,0
2023-03-03T01:40:11.332Z,0
2023-03-03T01:41:11.460Z,0
2023-03-03T01:42:14.116Z,0
2023-03-03T01:43:11.339Z,0
2023-03-03T01:44:11.330Z,0
2023-03-03T01:45:11.385Z,0
2023-03-03T01:46:11.573Z,0
2023-03-03T01:47:14.252Z,0
2023-03-03T01:48:11.475Z,0
2023-03-03T01:49:11.322Z,0
2023-03-03T01:50:11.304Z,0
2023-03-03T01:51:11.356Z,0
2023-03-03T01:52:11.363Z,0
2023-03-03T01:53:14.377Z,0
2023-03-03T01:54:11.447Z,0
2023-03-03T01:55:11.448Z,0
2023-03-03T01:56:11.329Z,0
2023-03-03T01:57:11.366Z,0
2023-03-03T01:58:20.224Z,0
2023-03-03T01:59:11.332Z,0
2023-03-03T02:00:11.386Z,0
2023-03-03T02:01:12.352Z,0
2023-03-03T02:02:11.638Z,0
2023-03-03T02:03:11.558Z,0
2023-03-03T02:04:14.485Z,0
2023-03-03T02:05:11.367Z,0
2023-03-03T02:06:11.344Z,0
2023-03-03T02:07:11.439Z,0
2023-03-03T02:08:11.355Z,0
2023-03-03T02:09:12.463Z,0
2023-03-03T02:10:11.431Z,0
2023-03-03T02:11:11.403Z,0
2023-03-03T02:12:11.447Z,0
2023-03-03T02:13:11.368Z,0
2023-03-03T02:14:11.405Z,0
2023-03-03T02:15:14.099Z,0
2023-03-03T02:16:11.658Z,0
2023-03-03T02:17:11.449Z,0
2023-03-03T02:18:11.397Z,0
2023-03-03T02:19:11.439Z,0
2023-03-03T02:20:14.552Z,0
2023-03-03T02:21:11.386Z,0
2023-03-03T02:22:11.429Z,0
2023-03-03T02:23:11.204Z,0
2023-03-03T02:24:11.454Z,0
2023-03-03T02:25:11.503Z,0
2023-03-03T02:26:14.418Z,0
2023-03-03T02:27:11.437Z,0
2023-03-03T02:28:11.379Z,0
2023-03-03T02:29:11.384Z,0
2023-03-03T02:30:11.443Z,0
2023-03-03T02:31:14.551Z,0
2023-03-03T02:32:11.462Z,0
2023-03-03T02:33:11.433Z,0
2023-03-03T02:34:11.419Z,0
2023-03-03T02:35:11.411Z,0
2023-03-03T02:36:11.406Z,0
2023-03-03T02:37:11.413Z,0
2023-03-03T02:38:11.404Z,0
2023-03-03T02:39:11.470Z,0
2023-03-03T02:40:11.426Z,0
2023-03-03T02:41:11.451Z,0
2023-03-03T02:42:14.270Z,0
2023-03-03T02:43:11.426Z,0
2023-03-03T02:44:11.425Z,0
2023-03-03T02:45:11.438Z,0
2023-03-03T02:46:11.654Z,0
2023-03-03T02:47:11.445Z,0
2023-03-03T02:48:11.455Z,0
2023-03-03T02:49:11.420Z,0
2023-03-03T02:50:11.451Z,0
2023-03-03T02:51:11.468Z,0
2023-03-03T02:52:11.441Z,0
2023-03-03T02:53:12.536Z,0
2023-03-03T02:54:11.431Z,0
2023-03-03T02:55:11.434Z,0
2023-03-03T02:56:11.491Z,0
2023-03-03T02:57:11.626Z,0
2023-03-03T02:58:14.365Z,0
2023-03-03T02:59:11.459Z,0
2023-03-03T03:00:11.432Z,0
2023-03-03T03:01:11.856Z,0
2023-03-03T03:02:11.449Z,0
2023-03-03T03:03:11.457Z,0
2023-03-03T03:04:15.551Z,0
2023-03-03T03:05:11.475Z,0
2023-03-03T03:06:11.440Z,0
2023-03-03T03:07:11.493Z,0
2023-03-03T03:08:11.462Z,0
2023-03-03T03:09:14.339Z,0
2023-03-03T03:10:11.454Z,0
2023-03-03T03:11:11.495Z,0
2023-03-03T03:12:11.452Z,0
2023-03-03T03:13:11.531Z,0
2023-03-03T03:14:11.534Z,0
2023-03-03T03:15:11.492Z,0
2023-03-03T03:16:11.670Z,0
2023-03-03T03:17:11.461Z,0
2023-03-03T03:18:11.459Z,0
2023-03-03T03:19:11.482Z,0
2023-03-03T03:20:14.277Z,0
2023-03-03T03:21:11.477Z,0
2023-03-03T03:22:11.513Z,0
2023-03-03T03:23:11.521Z,0
2023-03-03T03:24:11.546Z,0
2023-03-03T03:25:11.485Z,0
2023-03-03T03:26:11.490Z,0
2023-03-03T03:27:11.497Z,0
2023-03-03T03:28:11.508Z,0
2023-03-03T03:29:11.616Z,0
2023-03-03T03:30:11.542Z,0
2023-03-03T03:31:11.732Z,0
2023-03-03T03:32:11.679Z,0
2023-03-03T03:33:11.544Z,0
2023-03-03T03:34:11.505Z,0
2023-03-03T03:35:11.505Z,0
2023-03-03T03:36:14.645Z,0
2023-03-03T03:37:11.510Z,0
2023-03-03T03:38:11.490Z,0
2023-03-03T03:39:11.652Z,0
2023-03-03T03:40:11.508Z,0
2023-03-03T03:41:11.504Z,0
2023-03-03T03:42:11.541Z,0
2023-03-03T03:43:11.664Z,0
2023-03-03T03:44:11.518Z,0
2023-03-03T03:45:11.579Z,0
2023-03-03T03:46:11.885Z,0
2023-03-03T03:47:14.574Z,0
2023-03-03T03:48:11.563Z,0
2023-03-03T03:49:11.517Z,0
2023-03-03T03:50:11.584Z,0
2023-03-03T03:51:11.515Z,0
2023-03-03T03:52:14.359Z,0
2023-03-03T03:53:12.584Z,0
2023-03-03T03:54:11.544Z,0
2023-03-03T03:55:11.608Z,0
2023-03-03T03:56:11.546Z,0
2023-03-03T03:57:11.655Z,0
2023-03-03T03:58:14.414Z,0
2023-03-03T03:59:11.550Z,0
2023-03-03T04:00:11.548Z,0
2023-03-03T04:01:11.589Z,0
2023-03-03T04:02:12.208Z,0
2023-03-03T04:03:15.896Z,0
2023-03-03T04:04:11.537Z,0
2023-03-03T04:05:11.551Z,0
2023-03-03T04:06:11.585Z,0
2023-03-03T04:07:13.982Z,0
2023-03-03T04:08:11.633Z,0
2023-03-03T04:09:14.383Z,0
2023-03-03T04:10:11.552Z,0
2023-03-03T04:11:11.578Z,0
2023-03-03T04:12:11.606Z,0
2023-03-03T04:13:11.620Z,0
2023-03-03T04:14:14.391Z,0
2023-03-03T04:15:11.595Z,0
2023-03-03T04:16:11.993Z,0
2023-03-03T04:17:11.584Z,0
2023-03-03T04:18:11.693Z,0
2023-03-03T04:19:11.577Z,0
2023-03-03T04:20:14.729Z,0
2023-03-03T04:21:11.576Z,0
2023-03-03T04:22:11.651Z,0
2023-03-03T04:23:11.614Z,0
2023-03-03T04:24:11.666Z,0
2023-03-03T04:25:14.637Z,0
2023-03-03T04:26:11.581Z,0
2023-03-03T04:27:11.808Z,0
2023-03-03T04:28:12.695Z,0
2023-03-03T04:29:11.582Z,0
2023-03-03T04:30:11.603Z,0
2023-03-03T04:31:14.618Z,0
2023-03-03T04:32:11.724Z,0
2023-03-03T04:33:11.640Z,0
2023-03-03T04:34:11.641Z,0
2023-03-03T04:35:15.740Z,0
2023-03-03T04:36:14.382Z,0
2023-03-03T04:37:11.616Z,0
2023-03-03T04:38:11.635Z,0
2023-03-03T04:39:11.672Z,0
2023-03-03T04:40:11.679Z,0
2023-03-03T04:41:11.620Z,0
2023-03-03T04:42:11.603Z,0
2023-03-03T04:43:11.684Z,0
2023-03-03T04:44:11.625Z,0
2023-03-03T04:45:11.628Z,0
2023-03-03T04:46:11.982Z,0
2023-03-03T04:47:14.359Z,0
2023-03-03T04:48:11.692Z,0
2023-03-03T04:49:17.169Z,0
2023-03-03T04:50:11.644Z,0
2023-03-03T04:51:11.641Z,0
2023-03-03T04:52:11.640Z,0
2023-03-03T04:53:11.685Z,0
2023-03-03T04:54:11.669Z,0
2023-03-03T04:55:14.858Z,0
2023-03-03T04:56:11.624Z,0
2023-03-03T04:57:11.765Z,0
2023-03-03T04:58:14.512Z,0
2023-03-03T04:59:11.651Z,0
2023-03-03T05:00:11.669Z,0
2023-03-03T05:01:11.626Z,0
2023-03-03T05:02:11.613Z,0
2023-03-03T05:03:11.710Z,0
2023-03-03T05:04:11.653Z,0
2023-03-03T05:05:11.733Z,0
2023-03-03T05:06:11.671Z,0
2023-03-03T05:07:11.659Z,0
2023-03-03T05:08:11.647Z,0
2023-03-03T05:09:14.474Z,0
2023-03-03T05:10:11.673Z,0
2023-03-03T05:11:11.687Z,0
2023-03-03T05:12:11.760Z,0
2023-03-03T05:13:11.684Z,0
2023-03-03T05:14:11.685Z,0
2023-03-03T05:15:11.707Z,0
2023-03-03T05:16:11.911Z,0
2023-03-03T05:17:11.647Z,0
2023-03-03T05:18:11.664Z,0
2023-03-03T05:19:11.640Z,0
2023-03-03T05:20:14.736Z,0
2023-03-03T05:21:11.762Z,0
2023-03-03T05:22:11.661Z,0
2023-03-03T05:23:11.686Z,0
2023-03-03T05:24:11.689Z,0
2023-03-03T05:25:14.466Z,0
2023-03-03T05:26:11.687Z,0
2023-03-03T05:27:11.683Z,0
2023-03-03T05:28:11.682Z,0
2023-03-03T05:29:11.706Z,0
2023-03-03T05:30:11.688Z,0
2023-03-03T05:31:14.795Z,0
2023-03-03T05:32:12.067Z,0
2023-03-03T05:33:11.710Z,0
2023-03-03T05:34:11.732Z,0
2023-03-03T05:35:11.701Z,4
2023-03-03T05:36:14.492Z,0
2023-03-03T05:37:11.525Z,0
2023-03-03T05:38:12.486Z,0
2023-03-03T05:39:11.683Z,0
2023-03-03T05:40:11.719Z,0
2023-03-03T05:41:11.718Z,4
2023-03-03T05:42:11.721Z,0
2023-03-03T05:43:11.823Z,4
2023-03-03T05:44:11.693Z,0
2023-03-03T05:45:11.698Z,4
2023-03-03T05:46:11.846Z,4
2023-03-03T05:47:14.593Z,4
2023-03-03T05:48:11.725Z,4
2023-03-03T05:49:11.739Z,4
2023-03-03T05:50:11.746Z,8
2023-03-03T05:51:11.790Z,8
2023-03-03T05:52:11.770Z,8
2023-03-03T05:53:11.779Z,8
2023-03-03T05:54:11.756Z,8
2023-03-03T05:55:11.758Z,12
2023-03-03T05:56:11.724Z,12
2023-03-03T05:57:11.747Z,12
2023-03-03T05:58:11.709Z,16
2023-03-03T05:59:11.736Z,16
2023-03-03T06:00:11.794Z,16
2023-03-03T06:01:11.730Z,20
2023-03-03T06:02:12.032Z,20
2023-03-03T06:03:15.210Z,20
2023-03-03T06:04:11.727Z,24
2023-03-03T06:05:11.757Z,24
2023-03-03T06:06:11.574Z,24
2023-03-03T06:07:11.748Z,28
2023-03-03T06:08:11.776Z,28
2023-03-03T06:09:11.817Z,28
2023-03-03T06:10:11.775Z,32
2023-03-03T06:11:11.791Z,36
2023-03-03T06:12:14.474Z,36
2023-03-03T06:13:11.764Z,40
2023-03-03T06:14:14.917Z,40
2023-03-03T06:15:11.970Z,40
2023-03-03T06:16:12.006Z,44
2023-03-03T06:17:11.742Z,44
2023-03-03T06:18:11.781Z,44
2023-03-03T06:19:13.317Z,52
2023-03-03T06:20:19.272Z,52
2023-03-03T06:21:11.750Z,56
2023-03-03T06:22:11.752Z,60
2023-03-03T06:23:11.792Z,64
2023-03-03T06:24:11.868Z,64
2023-03-03T06:25:15.865Z,72
2023-03-03T06:26:11.808Z,72
2023-03-03T06:27:11.802Z,72
2023-03-03T06:28:11.783Z,68
2023-03-03T06:29:12.013Z,72
2023-03-03T06:30:14.862Z,72
2023-03-03T06:31:11.763Z,76
2023-03-03T06:32:12.535Z,76
2023-03-03T06:33:11.789Z,76
2023-03-03T06:34:11.805Z,76
2023-03-03T06:35:11.658Z,72
2023-03-03T06:36:15.635Z,76
2023-03-03T06:37:11.854Z,76
2023-03-03T06:38:11.789Z,84
2023-03-03T06:39:11.836Z,84
2023-03-03T06:40:12.039Z,88
2023-03-03T06:41:14.628Z,88
2023-03-03T06:42:11.814Z,92
2023-03-03T06:43:11.837Z,92
2023-03-03T06:44:11.905Z,100
2023-03-03T06:45:11.794Z,100
2023-03-03T06:46:12.016Z,104
2023-03-03T06:47:14.940Z,112
2023-03-03T06:48:11.815Z,116
2023-03-03T06:49:11.822Z,116
2023-03-03T06:50:11.845Z,120
2023-03-03T06:51:11.832Z,124
2023-03-03T06:52:14.875Z,128
2023-03-03T06:53:11.830Z,132
2023-03-03T06:54:11.837Z,140
2023-03-03T06:55:11.923Z,148
2023-03-03T06:56:11.896Z,152
2023-03-03T06:57:11.937Z,156
2023-03-03T06:58:14.919Z,156
2023-03-03T06:59:11.863Z,164
2023-03-03T07:00:11.905Z,168
2023-03-03T07:01:12.008Z,176
2023-03-03T07:02:11.820Z,180
2023-03-03T07:03:14.697Z,176
2023-03-03T07:04:12.065Z,176
2023-03-03T07:05:11.877Z,172
2023-03-03T07:06:13.205Z,176
2023-03-03T07:07:11.873Z,184
2023-03-03T07:08:11.861Z,192
2023-03-03T07:09:14.646Z,200
2023-03-03T07:10:11.843Z,204
2023-03-03T07:11:11.858Z,204
2023-03-03T07:12:11.917Z,200
2023-03-03T07:13:11.945Z,200
2023-03-03T07:14:14.699Z,196
2023-03-03T07:15:11.939Z,196
2023-03-03T07:16:11.871Z,192
2023-03-03T07:17:11.874Z,184
2023-03-03T07:18:15.019Z,180
2023-03-03T07:19:11.902Z,180
2023-03-03T07:20:20.740Z,188
2023-03-03T07:21:11.845Z,220
2023-03-03T07:22:11.851Z,272
2023-03-03T07:23:11.930Z,268
2023-03-03T07:24:11.912Z,312
2023-03-03T07:25:18.039Z,480
2023-03-03T07:26:11.899Z,680
2023-03-03T07:27:11.707Z,464
2023-03-03T07:28:11.912Z,812
2023-03-03T07:29:11.945Z,568
2023-03-03T07:30:11.890Z,672
2023-03-03T07:31:12.100Z,840
2023-03-03T07:32:12.111Z,608
2023-03-03T07:33:12.880Z,996
2023-03-03T07:34:11.932Z,1188
2023-03-03T07:35:11.914Z,1204
2023-03-03T07:36:14.676Z,1212
2023-03-03T07:37:11.936Z,1240
2023-03-03T07:38:12.346Z,1240
2023-03-03T07:39:11.940Z,1248
2023-03-03T07:40:12.010Z,1248
2023-03-03T07:41:11.938Z,1260
2023-03-03T07:42:11.908Z,1264
2023-03-03T07:43:12.060Z,1264
2023-03-03T07:44:11.992Z,1272
2023-03-03T07:45:12.108Z,1284
2023-03-03T07:46:12.182Z,1272
2023-03-03T07:47:15.013Z,644
2023-03-03T07:48:11.730Z,532
2023-03-03T07:49:11.974Z,484
2023-03-03T07:50:11.936Z,448
2023-03-03T07:51:12.059Z,432
2023-03-03T07:52:11.973Z,420
2023-03-03T07:53:11.937Z,424
2023-03-03T07:54:11.953Z,460
2023-03-03T07:55:11.954Z,512
2023-03-03T07:56:11.925Z,624
2023-03-03T07:57:11.970Z,616
2023-03-03T07:58:14.745Z,644
2023-03-03T07:59:11.975Z,580
2023-03-03T08:00:12.019Z,604
2023-03-03T08:01:11.971Z,648
2023-03-03T08:02:11.962Z,740
2023-03-03T08:03:15.042Z,800
2023-03-03T08:04:12.540Z,740
2023-03-03T08:05:12.912Z,816
2023-03-03T08:06:11.971Z,844
2023-03-03T08:07:11.776Z,828
2023-03-03T08:08:12.018Z,1048
2023-03-03T08:09:12.028Z,988
2023-03-03T08:10:12.209Z,1140
2023-03-03T08:11:11.805Z,1200
2023-03-03T08:12:11.997Z,1148
2023-03-03T08:13:11.919Z,752
2023-03-03T08:14:13.387Z,840
2023-03-03T08:15:11.987Z,868
2023-03-03T08:16:12.388Z,864
2023-03-03T08:17:12.035Z,860
2023-03-03T08:18:11.951Z,840
2023-03-03T08:19:12.015Z,776
2023-03-03T08:20:11.984Z,760
2023-03-03T08:21:11.956Z,744
2023-03-03T08:22:11.961Z,780
2023-03-03T08:23:12.038Z,800
2023-03-03T08:24:11.977Z,772
2023-03-03T08:25:12.055Z,756
2023-03-03T08:26:12.639Z,764
2023-03-03T08:27:12.036Z,764
2023-03-03T08:28:11.955Z,752
2023-03-03T08:29:12.039Z,772
2023-03-03T08:30:14.889Z,856
2023-03-03T08:31:45.000Z,720
2023-03-03T08:32:12.488Z,764
2023-03-03T08:33:11.849Z,840
2023-03-03T08:34:12.027Z,844
2023-03-03T08:35:12.047Z,680
2023-03-03T08:36:13.072Z,616
2023-03-03T08:37:12.002Z,576
2023-03-03T08:38:12.030Z,564
2023-03-03T08:39:12.107Z,576
2023-03-03T08:40:12.020Z,644
2023-03-03T08:41:14.775Z,716
2023-03-03T08:42:12.410Z,664
2023-03-03T08:43:12.128Z,764
2023-03-03T08:44:12.047Z,692
2023-03-03T08:45:12.026Z,644
2023-03-03T08:46:15.117Z,644
2023-03-03T08:47:12.058Z,612
2023-03-03T08:48:13.132Z,616
2023-03-03T08:49:12.036Z,628
2023-03-03T08:50:12.069Z,608
2023-03-03T08:51:12.008Z,748
2023-03-03T08:52:14.774Z,740
2023-03-03T08:53:12.042Z,784
2023-03-03T08:54:12.038Z,1048
2023-03-03T08:55:13.871Z,1224
2023-03-03T08:56:12.298Z,1416
2023-03-03T08:57:15.031Z,1484
2023-03-03T08:58:11.999Z,1508
2023-03-03T08:59:12.188Z,1488
2023-03-03T09:00:12.072Z,1480
2023-03-03T09:01:12.241Z,1488
2023-03-03T09:02:12.298Z,1496
2023-03-03T09:03:15.413Z,1504
2023-03-03T09:04:12.463Z,1508
2023-03-03T09:05:12.073Z,1496
2023-03-03T09:06:12.067Z,1492
2023-03-03T09:07:12.027Z,1504
2023-03-03T09:08:15.072Z,1500
2023-03-03T09:09:12.057Z,1492
2023-03-03T09:10:12.054Z,1480
2023-03-03T09:11:12.028Z,1476
2023-03-03T09:12:12.009Z,1492
2023-03-03T09:13:13.972Z,1492
2023-03-03T09:14:13.216Z,1500
2023-03-03T09:15:12.055Z,1512
2023-03-03T09:16:12.192Z,1508
2023-03-03T09:17:12.082Z,1504
2023-03-03T09:18:12.041Z,1508
2023-03-03T09:19:14.946Z,1504
2023-03-03T09:20:12.133Z,1508
2023-03-03T09:21:12.058Z,1508
2023-03-03T09:22:12.072Z,1512
2023-03-03T09:23:12.053Z,1512
2023-03-03T09:24:12.037Z,1516
2023-03-03T09:25:14.786Z,1516
2023-03-03T09:26:12.060Z,1540
2023-03-03T09:27:12.220Z,1540
2023-03-03T09:28:12.035Z,1544
2023-03-03T09:29:12.069Z,1544
2023-03-03T09:30:15.066Z,1548
2023-03-03T09:31:14.632Z,1552
2023-03-03T09:32:12.506Z,1560
2023-03-03T09:33:12.109Z,1564
2023-03-03T09:34:12.045Z,1564
2023-03-03T09:35:12.091Z,1560
2023-03-03T09:36:15.149Z,1544
2023-03-03T09:37:17.344Z,1536
2023-03-03T09:38:12.045Z,1524
2023-03-03T09:39:12.176Z,1524
2023-03-03T09:40:12.045Z,1520
2023-03-03T09:41:14.833Z,1500
2023-03-03T09:42:12.141Z,1500
2023-03-03T09:43:12.108Z,1512
2023-03-03T09:44:12.138Z,1508
2023-03-03T09:45:12.220Z,1516
2023-03-03T09:46:12.168Z,1508
2023-03-03T09:47:12.289Z,1524
2023-03-03T09:48:12.111Z,1532
2023-03-03T09:49:12.129Z,1536
2023-03-03T09:50:12.143Z,1536
2023-03-03T09:51:12.190Z,1536
2023-03-03T09:52:15.417Z,1544
2023-03-03T09:53:12.083Z,1540
2023-03-03T09:54:12.171Z,1540
2023-03-03T09:55:12.058Z,1528
2023-03-03T09:56:12.160Z,1532
2023-03-03T09:57:12.079Z,1536
2023-03-03T09:58:21.138Z,1540
2023-03-03T09:59:16.145Z,1528
2023-03-03T10:00:12.105Z,1520
2023-03-03T10:01:12.105Z,1520
2023-03-03T10:02:13.390Z,1516
2023-03-03T10:03:16.119Z,1516
2023-03-03T10:04:12.382Z,1520
2023-03-03T10:05:14.303Z,1524
2023-03-03T10:06:12.125Z,1504
2023-03-03T10:07:12.158Z,1500
2023-03-03T10:08:12.154Z,1496
2023-03-03T10:09:12.120Z,1500
2023-03-03T10:10:12.149Z,1496
2023-03-03T10:11:12.099Z,1500
2023-03-03T10:12:12.129Z,1500
2023-03-03T10:13:12.232Z,1508
2023-03-03T10:14:16.542Z,1508
2023-03-03T10:15:12.154Z,1500
2023-03-03T10:16:12.360Z,1500
2023-03-03T10:17:12.171Z,1504
2023-03-03T10:18:12.181Z,1504
2023-03-03T10:19:12.175Z,1508
2023-03-03T10:20:12.264Z,1500
2023-03-03T10:21:12.151Z,1512
2023-03-03T10:22:12.219Z,1504
2023-03-03T10:23:12.203Z,1512
2023-03-03T10:24:12.177Z,1512
2023-03-03T10:25:15.048Z,1508
2023-03-03T10:26:12.166Z,1500
2023-03-03T10:27:20.378Z,1504
2023-03-03T10:28:12.214Z,1500
2023-03-03T10:29:12.192Z,1496
2023-03-03T10:30:13.447Z,1500
2023-03-03T10:31:28.188Z,1492
2023-03-03T10:32:13.166Z,1492
2023-03-03T10:33:13.547Z,1492
2023-03-03T10:34:12.198Z,1492
2023-03-03T10:35:12.851Z,1488
2023-03-03T10:36:15.544Z,1484
2023-03-03T10:37:12.184Z,1480
2023-03-03T10:38:12.176Z,1468
2023-03-03T10:39:12.239Z,1468
2023-03-03T10:40:12.252Z,1464
2023-03-03T10:41:13.162Z,1468
2023-03-03T10:42:12.168Z,1464
2023-03-03T10:43:29.631Z,1460
2023-03-03T10:44:12.191Z,1456
2023-03-03T10:45:12.333Z,1452
2023-03-03T10:46:12.456Z,1444
2023-03-03T10:47:12.200Z,1444
2023-03-03T10:48:12.338Z,1448
2023-03-03T10:49:12.226Z,1440
2023-03-03T10:50:12.221Z,1436
2023-03-03T10:51:12.222Z,1428
2023-03-03T10:52:12.203Z,1424
2023-03-03T10:53:12.237Z,1420
2023-03-03T10:54:12.010Z,1412
2023-03-03T10:55:12.289Z,1380
2023-03-03T10:56:12.252Z,1368
2023-03-03T10:57:13.332Z,1360
2023-03-03T10:58:12.197Z,1360
2023-03-03T10:59:12.173Z,1348
2023-03-03T11:00:12.256Z,1348
2023-03-03T11:01:12.384Z,1332
2023-03-03T11:02:12.197Z,1328
2023-03-03T11:03:12.228Z,1324
2023-03-03T11:04:12.469Z,1324
2023-03-03T11:05:12.338Z,1320
2023-03-03T11:06:12.241Z,1308
2023-03-03T11:07:14.087Z,1292
2023-03-03T11:08:15.116Z,1272
2023-03-03T11:09:12.090Z,1264
2023-03-03T11:10:12.279Z,1256
2023-03-03T11:11:12.299Z,1244
2023-03-03T11:12:12.258Z,1232
2023-03-03T11:13:15.415Z,1232
2023-03-03T11:14:12.264Z,1228
2023-03-03T11:15:12.402Z,1220
2023-03-03T11:16:12.320Z,1212
2023-03-03T11:17:12.489Z,1208
2023-03-03T11:18:12.254Z,1200
2023-03-03T11:19:15.329Z,1196
2023-03-03T11:20:12.243Z,1192
2023-03-03T11:21:12.269Z,1184
2023-03-03T11:22:12.308Z,1180
2023-03-03T11:23:12.383Z,1172
2023-03-03T11:24:15.393Z,1164
2023-03-03T11:25:12.600Z,1160
2023-03-03T11:26:12.263Z,1152
2023-03-03T11:27:12.855Z,1140
2023-03-03T11:28:12.277Z,1132
2023-03-03T11:29:12.268Z,1132
2023-03-03T11:30:15.143Z,1128
2023-03-03T11:31:12.566Z,1120
2023-03-03T11:32:12.535Z,1116
2023-03-03T11:33:12.282Z,1108
2023-03-03T11:34:12.395Z,1100
2023-03-03T11:35:15.018Z,1088
2023-03-03T11:36:12.392Z,1084
2023-03-03T11:37:12.296Z,1076
2023-03-03T11:38:12.358Z,1072
2023-03-03T11:39:12.351Z,1060
2023-03-03T11:40:12.310Z,1052
2023-03-03T11:41:13.328Z,1044
2023-03-03T11:42:12.280Z,1040
2023-03-03T11:43:13.117Z,1028
2023-03-03T11:44:12.348Z,1020
2023-03-03T11:45:12.369Z,1008
2023-03-03T11:46:16.515Z,996
2023-03-03T11:47:12.331Z,988
2023-03-03T11:48:12.297Z,984
2023-03-03T11:49:12.311Z,980
2023-03-03T11:50:12.357Z,976
2023-03-03T11:51:12.289Z,964
2023-03-03T11:52:15.372Z,952
2023-03-03T11:53:12.327Z,952
2023-03-03T11:54:12.295Z,944
2023-03-03T11:55:12.585Z,936
2023-03-03T11:56:12.372Z,932
2023-03-03T11:57:15.419Z,928
2023-03-03T11:58:12.333Z,924
2023-03-03T11:59:12.389Z,920
2023-03-03T12:00:12.379Z,912
2023-03-03T12:01:12.412Z,908
2023-03-03T12:02:12.510Z,900
2023-03-03T12:03:15.063Z,900
2023-03-03T12:04:12.306Z,896
2023-03-03T12:05:12.407Z,892
2023-03-03T12:06:15.170Z,892
2023-03-03T12:07:24.794Z,888
2023-03-03T12:08:15.358Z,884
2023-03-03T12:09:12.321Z,884
2023-03-03T12:10:12.367Z,876
2023-03-03T12:11:12.386Z,872
2023-03-03T12:12:12.347Z,880
2023-03-03T12:13:12.347Z,868
2023-03-03T12:14:12.382Z,868
2023-03-03T12:15:12.471Z,860
2023-03-03T12:16:12.540Z,856
2023-03-03T12:17:12.328Z,856
2023-03-03T12:18:12.314Z,860
2023-03-03T12:19:15.086Z,860
2023-03-03T12:20:12.432Z,856
2023-03-03T12:21:12.339Z,848
2023-03-03T12:22:12.340Z,852
2023-03-03T12:23:14.237Z,856
2023-03-03T12:24:12.331Z,848
2023-03-03T12:25:12.410Z,844
2023-03-03T12:26:12.343Z,840
2023-03-03T12:27:12.348Z,836
2023-03-03T12:28:12.357Z,832
2023-03-03T12:29:14.636Z,832
2023-03-03T12:30:15.284Z,836
2023-03-03T12:31:12.620Z,828
2023-03-03T12:32:12.629Z,828
2023-03-03T12:33:12.356Z,828
2023-03-03T12:34:12.380Z,828
2023-03-03T12:35:12.385Z,824
2023-03-03T12:36:12.363Z,820
2023-03-03T12:37:12.399Z,816
2023-03-03T12:38:12.377Z,816
2023-03-03T12:39:13.525Z,812
2023-03-03T12:40:12.373Z,808
2023-03-03T12:41:15.655Z,812
2023-03-03T12:42:12.403Z,808
2023-03-03T12:43:12.442Z,812
2023-03-03T12:44:12.380Z,808
2023-03-03T12:45:12.429Z,804
2023-03-03T12:46:12.559Z,804
2023-03-03T12:47:12.598Z,804
2023-03-03T12:48:12.423Z,800
2023-03-03T12:49:12.400Z,800
2023-03-03T12:50:15.291Z,800
2023-03-03T12:51:12.451Z,796
2023-03-03T12:52:13.472Z,792
2023-03-03T12:53:16.914Z,792
2023-03-03T12:54:12.469Z,792
2023-03-03T12:55:12.416Z,792
2023-03-03T12:56:12.480Z,792
2023-03-03T12:57:15.262Z,792
2023-03-03T12:58:12.406Z,792
2023-03-03T12:59:12.452Z,788
2023-03-03T13:00:12.409Z,788
2023-03-03T13:01:12.775Z,784
2023-03-03T13:02:12.430Z,780
2023-03-03T13:03:12.666Z,780
2023-03-03T13:04:12.787Z,776
2023-03-03T13:05:12.465Z,772
2023-03-03T13:06:12.487Z,780
2023-03-03T13:07:12.406Z,764
2023-03-03T13:08:18.469Z,772
2023-03-03T13:09:12.437Z,772
2023-03-03T13:10:12.433Z,772
2023-03-03T13:11:12.441Z,764
2023-03-03T13:12:12.483Z,772
2023-03-03T13:13:12.246Z,768
2023-03-03T13:14:12.453Z,760
2023-03-03T13:15:13.790Z,776
2023-03-03T13:16:19.643Z,764
2023-03-03T13:17:12.592Z,772
2023-03-03T13:18:12.440Z,768
2023-03-03T13:19:12.451Z,756
2023-03-03T13:20:12.479Z,752
2023-03-03T13:21:12.494Z,764
2023-03-03T13:22:12.454Z,760
2023-03-03T13:23:12.464Z,760
2023-03-03T13:24:15.492Z,756
2023-03-03T13:25:12.505Z,748
2023-03-03T13:26:12.460Z,744
2023-03-03T13:27:12.453Z,740
2023-03-03T13:28:12.498Z,752
2023-03-03T13:29:12.455Z,744
2023-03-03T13:30:12.480Z,744
2023-03-03T13:31:12.768Z,748
2023-03-03T13:32:12.627Z,744
2023-03-03T13:33:12.445Z,752
2023-03-03T13:34:12.500Z,748
2023-03-03T13:35:15.578Z,748
2023-03-03T13:36:12.532Z,748
2023-03-03T13:37:12.465Z,740
2023-03-03T13:38:12.460Z,736
2023-03-03T13:39:12.488Z,736
2023-03-03T13:40:15.966Z,740
2023-03-03T13:41:12.546Z,740
2023-03-03T13:42:12.499Z,740
2023-03-03T13:43:12.517Z,744
2023-03-03T13:44:12.615Z,736
2023-03-03T13:45:12.520Z,732
2023-03-03T13:46:15.647Z,736
2023-03-03T13:47:12.485Z,728
2023-03-03T13:48:12.562Z,728
2023-03-03T13:49:12.498Z,740
2023-03-03T13:50:12.580Z,732
2023-03-03T13:51:15.660Z,728
2023-03-03T13:52:12.492Z,712
2023-03-03T13:53:12.545Z,708
2023-03-03T13:54:12.591Z,712
2023-03-03T13:55:12.612Z,724
2023-03-03T13:56:12.532Z,724
2023-03-03T13:57:16.778Z,724
2023-03-03T13:58:12.503Z,708
2023-03-03T13:59:12.496Z,708
2023-03-03T14:00:12.549Z,708
2023-03-03T14:01:12.890Z,728
2023-03-03T14:02:15.413Z,704
2023-03-03T14:03:12.533Z,708
2023-03-03T14:04:12.831Z,712
2023-03-03T14:05:12.760Z,712